Time;durP1;ratioP1;P1;durP2;ratioP2;P2;SDS_P1;SDS_P2;PMS_P1;PMS_P2;Temp;Humidity;BMP_temperature;BMP_pressure;BME280_temperature;BME280_humidity;BME280_pressure;Samples;Min_cycle;Max_cycle;Signal;HPM_P1;HPM_P2
2023/10/25 00:01:43;;;;;;;1.67;1.02;;;;;;;;;;10372453;28;20046;-78
2023/10/25 00:06:47;;;;;;;1.33;0.80;;;;;;;;;;10367308;28;20511;-78
2023/10/25 00:11:50;;;;;;;0.95;0.63;;;;;;;;;;10349873;28;20117;-79
2023/10/25 00:16:54;;;;;;;0.82;0.70;;;;;;;;;;10377668;28;20109;-78
2023/10/25 00:21:58;;;;;;;2.08;0.77;;;;;;;;;;10369827;28;20050;-78
2023/10/25 00:27:01;;;;;;;0.73;0.60;;;;;;;;;;10368172;28;20056;-78
2023/10/25 00:32:06;;;;;;;0.93;0.68;;;;;;;;;;10371032;28;20046;-77
2023/10/25 00:37:10;;;;;;;0.98;0.80;;;;;;;;;;10343670;28;20050;-77
2023/10/25 00:42:14;;;;;;;1.73;0.80;;;;;;;;;;10370062;28;20499;-77
2023/10/25 00:47:18;;;;;;;0.82;0.80;;;;;;;;;;10370351;28;20075;-78
2023/10/25 00:52:22;;;;;;;1.63;0.90;;;;;;;;;;10368019;28;20533;-78
2023/10/25 00:57:25;;;;;;;1.05;0.65;;;;;;;;;;10353544;28;20056;-78
2023/10/25 01:02:30;;;;;;;0.68;0.68;;;;;;;;;;10345666;28;20058;-78
2023/10/25 01:07:33;;;;;;;1.00;0.90;;;;;;;;;;10368391;28;20042;-78
2023/10/25 01:12:37;;;;;;;0.90;0.60;;;;;;;;;;10368226;28;20454;-78
2023/10/25 01:17:42;;;;;;;0.75;0.57;;;;;;;;;;10377792;28;20054;-78
2023/10/25 01:22:47;;;;;;;1.48;0.77;;;;;;;;;;10363864;28;20130;-78
2023/10/25 01:27:51;;;;;;;2.40;0.93;;;;;;;;;;10357847;28;20052;-78
2023/10/25 01:32:55;;;;;;;0.63;0.50;;;;;;;;;;10377463;28;20054;-77
2023/10/25 01:38:00;;;;;;;0.60;0.60;;;;;;;;;;10355465;28;20065;-78
2023/10/25 01:43:03;;;;;;;1.20;0.60;;;;;;;;;;10386332;23;20529;-77
2023/10/25 01:48:08;;;;;;;0.40;0.40;;;;;;;;;;10333638;28;20057;-77
2023/10/25 01:53:13;;;;;;;1.13;0.60;;;;;;;;;;10374163;28;20089;-77
2023/10/25 01:58:17;;;;;;;1.02;0.40;;;;;;;;;;10346473;28;20045;-77
2023/10/25 02:03:20;;;;;;;0.95;0.45;;;;;;;;;;10347978;28;20507;-77
2023/10/25 02:08:25;;;;;;;2.33;0.60;;;;;;;;;;10371249;28;20049;-77
2023/10/25 02:13:29;;;;;;;1.60;0.50;;;;;;;;;;10366888;28;20427;-77
2023/10/25 02:18:32;;;;;;;1.10;0.77;;;;;;;;;;10370394;28;20519;-77
2023/10/25 02:23:38;;;;;;;0.52;0.50;;;;;;;;;;10365261;28;20050;-77
2023/10/25 02:28:42;;;;;;;0.73;0.60;;;;;;;;;;10374748;28;20046;-77
2023/10/25 02:33:45;;;;;;;0.60;0.55;;;;;;;;;;10370523;28;20128;-77
2023/10/25 02:38:50;;;;;;;1.38;0.43;;;;;;;;;;10377531;28;20058;-77
2023/10/25 02:43:56;;;;;;;0.40;0.40;;;;;;;;;;10362331;28;20451;-77
2023/10/25 02:48:59;;;;;;;1.10;0.60;;;;;;;;;;10368222;28;20503;-77
2023/10/25 02:54:04;;;;;;;2.65;0.50;;;;;;;;;;10374113;28;20056;-77
2023/10/25 02:59:08;;;;;;;1.10;0.57;;;;;;;;;;10366384;28;20097;-77
2023/10/25 03:04:11;;;;;;;0.50;0.40;;;;;;;;;;10372682;28;20048;-77
2023/10/25 03:09:17;;;;;;;0.75;0.43;;;;;;;;;;10343011;28;20046;-77
2023/10/25 03:14:20;;;;;;;0.65;0.50;;;;;;;;;;10368473;28;20407;-78
2023/10/25 03:19:25;;;;;;;0.45;0.40;;;;;;;;;;10372766;28;20046;-77
2023/10/25 03:24:30;;;;;;;0.45;0.45;;;;;;;;;;10348419;28;20065;-77
2023/10/25 03:29:36;;;;;;;2.33;0.85;;;;;;;;;;10347017;28;20058;-77
2023/10/25 03:34:40;;;;;;;0.52;0.50;;;;;;;;;;10342689;28;20058;-77
2023/10/25 03:39:45;;;;;;;0.45;0.45;;;;;;;;;;10366564;28;20427;-77
2023/10/25 03:44:49;;;;;;;0.88;0.50;;;;;;;;;;10363620;28;20408;-77
2023/10/25 03:49:53;;;;;;;0.50;0.50;;;;;;;;;;10369492;28;20050;-77
2023/10/25 03:54:58;;;;;;;0.70;0.50;;;;;;;;;;10371005;28;20105;-77
2023/10/25 04:00:03;;;;;;;0.80;0.60;;;;;;;;;;10364715;28;20512;-77
2023/10/25 04:05:14;;;;;;;0.70;0.70;;;;;;;;;;10366069;28;20046;-77
2023/10/25 04:10:19;;;;;;;0.68;0.57;;;;;;;;;;10366229;28;20050;-77
2023/10/25 04:15:25;;;;;;;2.38;0.70;;;;;;;;;;10365511;28;20053;-77
2023/10/25 04:20:32;;;;;;;2.13;0.50;;;;;;;;;;10344489;28;20440;-77
2023/10/25 04:25:39;;;;;;;2.25;0.70;;;;;;;;;;10360624;28;20057;-77
2023/10/25 04:30:42;;;;;;;1.25;0.70;;;;;;;;;;10367004;28;20180;-77
2023/10/25 04:35:46;;;;;;;0.73;0.70;;;;;;;;;;10345337;28;20081;-77
2023/10/25 04:40:51;;;;;;;1.05;0.95;;;;;;;;;;10347299;28;20073;-76
2023/10/25 04:45:54;;;;;;;1.08;0.90;;;;;;;;;;10339914;28;20080;-75
2023/10/25 04:50:58;;;;;;;1.10;0.90;;;;;;;;;;10360140;28;20045;-76
2023/10/25 04:56:03;;;;;;;1.05;0.70;;;;;;;;;;10365533;28;20092;-75
2023/10/25 05:01:13;;;;;;;1.42;1.10;;;;;;;;;;10369281;28;20056;-75
2023/10/25 05:06:17;;;;;;;0.75;0.68;;;;;;;;;;10362156;28;20765;-76
2023/10/25 05:11:26;;;;;;;1.83;0.98;;;;;;;;;;10365596;28;20491;-75
2023/10/25 05:16:30;;;;;;;1.17;0.80;;;;;;;;;;10366014;28;20054;-75
2023/10/25 05:21:37;;;;;;;0.82;0.82;;;;;;;;;;10368797;28;20050;-75
2023/10/25 05:26:43;;;;;;;1.05;0.95;;;;;;;;;;10366063;28;20791;-75
2023/10/25 05:31:47;;;;;;;1.60;1.40;;;;;;;;;;10349095;28;20092;-75
2023/10/25 05:36:51;;;;;;;1.30;0.90;;;;;;;;;;10368432;28;20547;-75
2023/10/25 05:41:58;;;;;;;1.52;1.13;;;;;;;;;;10367444;28;20424;-76
2023/10/25 05:47:01;;;;;;;2.45;1.10;;;;;;;;;;10364367;28;20069;-75
2023/10/25 05:52:07;;;;;;;1.30;1.20;;;;;;;;;;10334346;28;20041;-76
2023/10/25 05:57:13;;;;;;;1.42;1.23;;;;;;;;;;10346664;28;20046;-76
2023/10/25 06:02:22;;;;;;;1.95;1.30;;;;;;;;;;10371065;28;20049;-76
2023/10/25 06:07:27;;;;;;;3.55;1.40;;;;;;;;;;10379859;28;20053;-75
2023/10/25 06:12:33;;;;;;;1.67;1.25;;;;;;;;;;10372358;28;20046;-76
2023/10/25 06:17:36;;;;;;;1.90;1.30;;;;;;;;;;10371663;28;20508;-75
2023/10/25 06:22:40;;;;;;;2.20;1.52;;;;;;;;;;10371516;28;20477;-76
2023/10/25 06:27:45;;;;;;;1.58;1.15;;;;;;;;;;10374221;28;20049;-76
2023/10/25 06:32:48;;;;;;;1.45;1.10;;;;;;;;;;10371482;28;20422;-76
2023/10/25 06:37:52;;;;;;;1.45;1.25;;;;;;;;;;10374470;28;20057;-76
2023/10/25 06:43:00;;;;;;;2.25;1.10;;;;;;;;;;10371560;28;20052;-76
2023/10/25 06:48:04;;;;;;;1.30;1.20;;;;;;;;;;10370356;28;20050;-76
2023/10/25 06:53:08;;;;;;;1.80;1.30;;;;;;;;;;10370310;28;20053;-76
2023/10/25 06:58:14;;;;;;;1.40;1.20;;;;;;;;;;10376172;28;20045;-76
2023/10/25 07:03:20;;;;;;;1.40;1.23;;;;;;;;;;10370333;28;20650;-76
2023/10/25 07:08:24;;;;;;;1.83;1.30;;;;;;;;;;10370316;28;20783;-76
2023/10/25 07:13:29;;;;;;;6.40;3.47;;;;;;;;;;10342473;28;20052;-76
2023/10/25 07:18:33;;;;;;;8.23;3.50;;;;;;;;;;10368657;28;20054;-76
2023/10/25 07:23:36;;;;;;;5.10;3.20;;;;;;;;;;10369314;28;20468;-76
2023/10/25 07:28:41;;;;;;;4.07;2.55;;;;;;;;;;10369058;28;20050;-76
2023/10/25 07:33:44;;;;;;;3.22;2.08;;;;;;;;;;10369942;28;20092;-76
2023/10/25 07:38:48;;;;;;;4.43;1.95;;;;;;;;;;10372698;28;20057;-76
2023/10/25 07:43:53;;;;;;;2.95;2.55;;;;;;;;;;10383237;23;20062;-77
2023/10/25 07:48:56;;;;;;;3.83;2.45;;;;;;;;;;10349794;28;20096;-77
2023/10/25 07:54:00;;;;;;;2.65;2.05;;;;;;;;;;10368814;28;20049;-77
2023/10/25 07:59:05;;;;;;;3.25;1.95;;;;;;;;;;10369936;28;20411;-77
2023/10/25 08:04:08;;;;;;;3.30;2.20;;;;;;;;;;10368911;28;20045;-76
2023/10/25 08:09:12;;;;;;;2.15;1.80;;;;;;;;;;10368372;28;20091;-76
2023/10/25 08:14:20;;;;;;;1.70;1.58;;;;;;;;;;10339433;28;20127;-76
2023/10/25 08:19:23;;;;;;;1.77;1.52;;;;;;;;;;10351810;28;20099;-76
2023/10/25 08:24:27;;;;;;;1.60;1.30;;;;;;;;;;10365828;28;20573;-77
2023/10/25 08:29:31;;;;;;;2.05;1.52;;;;;;;;;;10365234;28;20050;-76
2023/10/25 08:34:35;;;;;;;4.22;1.58;;;;;;;;;;10367553;28;20053;-76
2023/10/25 08:39:38;;;;;;;2.03;1.77;;;;;;;;;;10369982;28;20471;-77
2023/10/25 08:44:44;;;;;;;4.00;2.83;;;;;;;;;;10368060;28;20081;-76
2023/10/25 08:49:47;;;;;;;5.95;4.32;;;;;;;;;;10368391;28;20065;-77
2023/10/25 08:54:51;;;;;;;6.22;4.13;;;;;;;;;;10364924;28;20157;-76
2023/10/25 08:59:55;;;;;;;5.88;3.90;;;;;;;;;;10363449;28;20132;-76
2023/10/25 09:05:01;;;;;;;6.72;4.20;;;;;;;;;;10348952;28;20049;-77
2023/10/25 09:10:15;;;;;;;5.50;3.88;;;;;;;;;;10365014;28;20070;-76
2023/10/25 09:15:29;;;;;;;8.88;5.53;;;;;;;;;;10344997;28;20061;-77
2023/10/25 09:20:33;;;;;;;8.13;5.35;;;;;;;;;;10367663;28;20086;-76
2023/10/25 09:25:37;;;;;;;5.53;4.10;;;;;;;;;;10372061;28;20088;-76
2023/10/25 09:30:43;;;;;;;8.15;5.53;;;;;;;;;;10348698;28;20054;-76
2023/10/25 09:35:46;;;;;;;5.40;3.85;;;;;;;;;;10370267;28;20422;-76
2023/10/25 09:40:52;;;;;;;7.28;4.68;;;;;;;;;;10372223;28;20148;-76
2023/10/25 09:46:02;;;;;;;6.85;4.28;;;;;;;;;;10372237;28;20050;-77
2023/10/25 09:51:09;;;;;;;6.07;4.05;;;;;;;;;;10371291;28;20519;-78
2023/10/25 09:56:13;;;;;;;5.47;3.70;;;;;;;;;;10387065;28;20045;-78
2023/10/25 10:01:17;;;;;;;7.10;4.85;;;;;;;;;;10376754;28;20056;-78
2023/10/25 10:06:31;;;;;;;6.80;4.15;;;;;;;;;;10377949;28;20851;-78
2023/10/25 10:11:39;;;;;;;6.72;5.07;;;;;;;;;;10376830;28;20069;-78
2023/10/25 10:16:45;;;;;;;6.75;4.85;;;;;;;;;;10374708;28;20583;-78
2023/10/25 10:22:06;;;;;;;7.15;4.88;;;;;;;;;;10375001;28;20042;-78
2023/10/25 10:27:10;;;;;;;4.65;3.50;;;;;;;;;;10355654;28;20571;-78
2023/10/25 10:32:16;;;;;;;3.65;3.13;;;;;;;;;;10373612;28;20046;-78
2023/10/25 10:37:21;;;;;;;4.47;3.63;;;;;;;;;;10376757;28;20136;-78
2023/10/25 10:42:32;;;;;;;3.83;3.28;;;;;;;;;;10358720;28;20096;-77
2023/10/25 10:47:41;;;;;;;3.63;2.80;;;;;;;;;;10373143;28;20052;-77
2023/10/25 10:52:46;;;;;;;3.42;2.30;;;;;;;;;;10371032;28;20053;-78
2023/10/25 10:57:49;;;;;;;2.10;1.90;;;;;;;;;;10372380;28;20507;-78
2023/10/25 11:02:57;;;;;;;2.30;1.92;;;;;;;;;;10371941;28;20458;-77
2023/10/25 11:08:00;;;;;;;2.17;1.73;;;;;;;;;;10374693;28;20140;-77
2023/10/25 11:13:08;;;;;;;6.07;1.70;;;;;;;;;;10372034;28;20054;-77
2023/10/25 11:18:13;;;;;;;1.70;1.60;;;;;;;;;;10345433;28;20137;-78
2023/10/25 11:23:16;;;;;;;1.63;1.50;;;;;;;;;;10353907;28;20045;-78
2023/10/25 11:28:20;;;;;;;1.63;1.48;;;;;;;;;;10375296;28;20141;-78
2023/10/25 11:33:25;;;;;;;1.60;1.45;;;;;;;;;;10381670;28;20061;-78
2023/10/25 11:38:29;;;;;;;2.10;1.30;;;;;;;;;;10365771;28;20105;-78
2023/10/25 11:43:33;;;;;;;1.25;1.15;;;;;;;;;;10379314;28;20046;-77
2023/10/25 11:48:39;;;;;;;1.20;1.10;;;;;;;;;;10371031;28;20507;-77
2023/10/25 11:53:42;;;;;;;2.47;0.90;;;;;;;;;;10404509;28;20056;-78
2023/10/25 11:58:45;;;;;;;2.83;1.13;;;;;;;;;;10367333;28;20045;-78
2023/10/25 12:03:50;;;;;;;1.05;0.95;;;;;;;;;;10375990;28;20515;-78
2023/10/25 12:08:53;;;;;;;0.80;0.80;;;;;;;;;;10374602;28;20046;-77
2023/10/25 12:13:56;;;;;;;0.60;0.45;;;;;;;;;;10375171;28;20089;-77
2023/10/25 12:19:01;;;;;;;0.73;0.73;;;;;;;;;;10383926;28;20048;-77
2023/10/25 12:24:05;;;;;;;0.75;0.50;;;;;;;;;;10375081;28;20131;-77
2023/10/25 12:29:08;;;;;;;0.98;0.73;;;;;;;;;;10369454;28;20061;-77
2023/10/25 12:34:13;;;;;;;0.60;0.60;;;;;;;;;;10368813;28;20050;-77
2023/10/25 12:39:17;;;;;;;0.50;0.50;;;;;;;;;;10377530;28;20045;-77
2023/10/25 12:44:20;;;;;;;0.50;0.50;;;;;;;;;;10370353;28;20052;-77
2023/10/25 12:49:25;;;;;;;0.90;0.70;;;;;;;;;;10367157;28;20056;-77
2023/10/25 12:54:29;;;;;;;0.60;0.60;;;;;;;;;;10371635;28;20065;-76
2023/10/25 12:59:32;;;;;;;0.80;0.70;;;;;;;;;;10371428;28;20053;-77
2023/10/25 13:04:37;;;;;;;0.45;0.40;;;;;;;;;;10372593;28;20142;-76
2023/10/25 13:09:41;;;;;;;0.90;0.50;;;;;;;;;;10366064;28;20157;-77
2023/10/25 13:14:45;;;;;;;0.40;0.40;;;;;;;;;;10346461;28;20044;-77
2023/10/25 13:19:50;;;;;;;0.60;0.55;;;;;;;;;;10369774;28;20053;-76
2023/10/25 13:24:53;;;;;;;1.17;1.00;;;;;;;;;;10366592;28;20046;-77
2023/10/25 13:29:56;;;;;;;0.50;0.50;;;;;;;;;;10365973;28;20058;-76
2023/10/25 13:35:01;;;;;;;2.33;0.40;;;;;;;;;;10369626;28;20049;-77
2023/10/25 13:40:05;;;;;;;0.70;0.65;;;;;;;;;;10370192;28;20137;-76
2023/10/25 13:45:09;;;;;;;0.88;0.47;;;;;;;;;;10364983;28;20057;-76
2023/10/25 13:50:14;;;;;;;0.40;0.40;;;;;;;;;;10362943;28;20046;-77
2023/10/25 13:55:20;;;;;;;0.40;0.40;;;;;;;;;;10371527;28;20050;-77
2023/10/25 14:00:26;;;;;;;0.57;0.40;;;;;;;;;;10371749;28;20468;-77
2023/10/25 14:05:30;;;;;;;;;;;;;;;;;;10362384;28;20454;-76
2023/10/25 14:10:34;;;;;;;1.00;0.70;;;;;;;;;;10348004;28;20037;-76
2023/10/25 14:15:37;;;;;;;0.40;0.40;;;;;;;;;;10370539;28;20053;-76
2023/10/25 14:20:42;;;;;;;0.40;0.40;;;;;;;;;;10369686;28;20534;-76
2023/10/25 14:25:46;;;;;;;0.40;0.40;;;;;;;;;;10370443;28;20044;-77
2023/10/25 14:30:49;;;;;;;0.40;0.40;;;;;;;;;;10370648;28;20434;-76
2023/10/25 14:35:56;;;;;;;0.63;0.50;;;;;;;;;;10369380;28;20129;-76
2023/10/25 14:41:00;;;;;;;0.73;0.60;;;;;;;;;;10370547;28;20161;-76
2023/10/25 14:46:04;;;;;;;2.92;0.50;;;;;;;;;;10370062;28;20034;-77
2023/10/25 14:51:15;;;;;;;0.90;0.52;;;;;;;;;;10368928;28;20048;-76
2023/10/25 14:56:18;;;;;;;0.93;0.70;;;;;;;;;;10368626;28;20117;-76
2023/10/25 15:01:23;;;;;;;0.50;0.50;;;;;;;;;;10369235;28;20048;-77
2023/10/25 15:06:28;;;;;;;0.40;0.40;;;;;;;;;;10368350;28;20129;-77
2023/10/25 15:11:31;;;;;;;1.10;0.90;;;;;;;;;;10368189;28;20062;-76
2023/10/25 15:16:35;;;;;;;0.60;0.60;;;;;;;;;;10369255;28;20482;-77
2023/10/25 15:21:39;;;;;;;1.38;1.23;;;;;;;;;;10363862;28;20050;-77
2023/10/25 15:26:43;;;;;;;0.77;0.63;;;;;;;;;;10369919;28;20046;-77
2023/10/25 15:31:46;;;;;;;0.80;0.75;;;;;;;;;;10377143;28;20839;-77
2023/10/25 15:36:51;;;;;;;0.93;0.77;;;;;;;;;;10354630;28;20069;-77
2023/10/25 15:41:54;;;;;;;0.70;0.70;;;;;;;;;;10371286;28;20048;-77
2023/10/25 15:46:58;;;;;;;0.50;0.50;;;;;;;;;;10353588;28;20601;-77
2023/10/25 15:52:03;;;;;;;0.85;0.70;;;;;;;;;;10368073;28;20418;-77
2023/10/25 15:57:07;;;;;;;1.05;0.95;;;;;;;;;;10371146;28;20117;-77
2023/10/25 16:02:10;;;;;;;2.95;1.92;;;;;;;;;;10372585;28;20124;-77
2023/10/25 16:07:15;;;;;;;2.40;1.13;;;;;;;;;;10358538;28;20113;-76
2023/10/25 16:12:18;;;;;;;1.75;1.00;;;;;;;;;;10369804;28;20077;-76
2023/10/25 16:17:22;;;;;;;0.90;0.77;;;;;;;;;;10372814;28;20426;-77
2023/10/25 16:22:26;;;;;;;0.50;0.50;;;;;;;;;;10375926;28;20049;-76
2023/10/25 16:27:29;;;;;;;0.88;0.63;;;;;;;;;;10344246;28;20112;-77
2023/10/25 16:32:33;;;;;;;0.82;0.70;;;;;;;;;;10348074;28;20054;-77
2023/10/25 16:37:38;;;;;;;1.30;1.10;;;;;;;;;;10374859;28;20100;-77
2023/10/25 16:42:41;;;;;;;1.25;1.15;;;;;;;;;;10365899;28;20141;-77
2023/10/25 16:47:45;;;;;;;1.38;1.10;;;;;;;;;;10361323;28;20466;-77
2023/10/25 16:52:53;;;;;;;1.67;1.30;;;;;;;;;;10371067;28;20487;-77
2023/10/25 16:57:56;;;;;;;3.22;1.80;;;;;;;;;;10365795;28;20044;-77
2023/10/25 17:03:02;;;;;;;2.22;1.40;;;;;;;;;;10360968;28;20042;-76
2023/10/25 17:08:07;;;;;;;;;;;;;;;;;;10368120;28;20096;-77
2023/10/25 17:13:10;;;;;;;2.42;0.82;;;;;;;;;;10372814;28;20005;-76
2023/10/25 17:18:14;;;;;;;1.40;0.90;;;;;;;;;;10347957;28;20065;-77
2023/10/25 17:23:20;;;;;;;1.15;1.00;;;;;;;;;;10371491;28;20042;-77
2023/10/25 17:28:28;;;;;;;2.03;1.00;;;;;;;;;;10368597;28;20072;-77
2023/10/25 17:33:31;;;;;;;0.93;0.70;;;;;;;;;;10355988;28;20046;-77
2023/10/25 17:38:36;;;;;;;0.80;0.70;;;;;;;;;;10356550;28;20411;-78
2023/10/25 17:43:39;;;;;;;1.20;0.98;;;;;;;;;;10372520;28;20120;-78
2023/10/25 17:48:43;;;;;;;1.00;0.80;;;;;;;;;;10372103;28;20053;-79
2023/10/25 17:53:49;;;;;;;0.90;0.80;;;;;;;;;;10388083;28;20455;-78
2023/10/25 17:58:52;;;;;;;1.10;0.90;;;;;;;;;;10376327;28;20050;-77
2023/10/25 18:03:55;;;;;;;0.52;0.52;;;;;;;;;;10371491;28;20053;-77
2023/10/25 18:09:00;;;;;;;1.02;0.50;;;;;;;;;;10380508;28;20084;-77
2023/10/25 18:14:05;;;;;;;0.80;0.40;;;;;;;;;;10359352;28;20050;-78
2023/10/25 18:19:08;;;;;;;0.60;0.57;;;;;;;;;;10357169;28;20152;-77
2023/10/25 18:24:12;;;;;;;0.45;0.45;;;;;;;;;;10362503;28;20045;-77
2023/10/25 18:29:16;;;;;;;0.50;0.50;;;;;;;;;;10357120;28;20069;-77
2023/10/25 18:34:19;;;;;;;0.77;0.50;;;;;;;;;;10353210;28;20586;-77
2023/10/25 18:39:25;;;;;;;0.35;0.35;;;;;;;;;;10370986;28;20096;-77
2023/10/25 18:44:32;;;;;;;0.50;0.50;;;;;;;;;;10371013;28;20555;-76
2023/10/25 18:49:36;;;;;;;1.05;0.50;;;;;;;;;;10356941;28;20137;-77
2023/10/25 18:54:41;;;;;;;0.55;0.50;;;;;;;;;;10364339;28;20054;-77
2023/10/25 18:59:45;;;;;;;0.80;0.55;;;;;;;;;;10376485;28;20050;-77
2023/10/25 19:04:48;;;;;;;0.30;0.30;;;;;;;;;;10365655;28;20054;-76
2023/10/25 19:09:53;;;;;;;0.82;0.50;;;;;;;;;;10372021;28;20081;-76
2023/10/25 19:14:56;;;;;;;0.52;0.40;;;;;;;;;;10367882;28;20133;-76
2023/10/25 19:20:00;;;;;;;0.40;0.40;;;;;;;;;;10364923;28;20092;-76
2023/10/25 19:25:11;;;;;;;2.15;1.45;;;;;;;;;;10367957;28;20411;-76
2023/10/25 19:30:15;;;;;;;1.30;0.82;;;;;;;;;;10358452;28;20077;-77
2023/10/25 19:35:19;;;;;;;0.60;0.40;;;;;;;;;;10332181;28;20070;-77
2023/10/25 19:40:24;;;;;;;1.00;0.50;;;;;;;;;;10313742;28;20050;-77
2023/10/25 19:45:27;;;;;;;0.70;0.50;;;;;;;;;;10340241;23;20105;-77
2023/10/25 19:50:37;;;;;;;0.90;0.50;;;;;;;;;;10317384;28;20050;-78
2023/10/25 19:55:53;;;;;;;1.20;0.82;;;;;;;;;;10324242;28;20046;-78
2023/10/25 20:00:57;;;;;;;0.40;0.30;;;;;;;;;;10321449;28;20117;-77
2023/10/25 20:06:13;;;;;;;0.40;0.32;;;;;;;;;;10326105;28;20575;-77
2023/10/25 20:11:21;;;;;;;0.70;0.43;;;;;;;;;;10323838;28;20053;-77
2023/10/25 20:16:24;;;;;;;1.42;0.38;;;;;;;;;;10326470;28;20046;-78
2023/10/25 20:21:28;;;;;;;0.43;0.40;;;;;;;;;;10323229;28;20052;-77
2023/10/25 20:26:33;;;;;;;0.30;0.30;;;;;;;;;;10326841;28;20058;-77
2023/10/25 20:31:37;;;;;;;0.30;0.30;;;;;;;;;;10323906;28;20046;-77
2023/10/25 20:36:41;;;;;;;0.50;0.40;;;;;;;;;;10328057;28;20114;-77
2023/10/25 20:41:46;;;;;;;0.60;0.60;;;;;;;;;;10331464;28;20060;-77
2023/10/25 20:46:50;;;;;;;0.70;0.40;;;;;;;;;;10330707;28;20042;-77
2023/10/25 20:51:53;;;;;;;0.98;0.60;;;;;;;;;;10327567;28;20057;-77
2023/10/25 20:57:03;;;;;;;0.50;0.50;;;;;;;;;;10326349;28;20050;-78
2023/10/25 21:02:08;;;;;;;0.40;0.30;;;;;;;;;;10328144;28;20054;-78
2023/10/25 21:07:12;;;;;;;0.50;0.40;;;;;;;;;;10333316;28;20042;-78
2023/10/25 21:12:17;;;;;;;0.30;0.30;;;;;;;;;;10327824;28;20500;-78
2023/10/25 21:17:21;;;;;;;0.30;0.30;;;;;;;;;;10315153;28;20503;-78
2023/10/25 21:22:27;;;;;;;0.80;0.40;;;;;;;;;;10315300;28;20062;-77
2023/10/25 21:27:32;;;;;;;0.63;0.55;;;;;;;;;;10324387;28;20137;-77
2023/10/25 21:32:35;;;;;;;1.00;0.70;;;;;;;;;;10329987;28;20058;-77
2023/10/25 21:37:40;;;;;;;0.60;0.60;;;;;;;;;;10323548;28;20411;-77
2023/10/25 21:42:45;;;;;;;0.60;0.40;;;;;;;;;;10333218;28;20671;-77
2023/10/25 21:47:49;;;;;;;1.80;0.60;;;;;;;;;;10334642;28;20039;-77
2023/10/25 21:52:53;;;;;;;0.40;0.40;;;;;;;;;;10334160;28;20106;-77
2023/10/25 21:57:58;;;;;;;0.60;0.30;;;;;;;;;;10335166;28;20405;-77
2023/10/25 22:03:01;;;;;;;0.40;0.40;;;;;;;;;;10313402;28;20050;-77
2023/10/25 22:08:05;;;;;;;0.50;0.50;;;;;;;;;;10311927;28;20050;-78
2023/10/25 22:13:11;;;;;;;0.40;0.40;;;;;;;;;;10331101;28;20050;-77
2023/10/25 22:18:15;;;;;;;0.77;0.50;;;;;;;;;;10334919;28;20492;-77
2023/10/25 22:23:18;;;;;;;0.93;0.63;;;;;;;;;;10331271;28;20423;-77
2023/10/25 22:28:23;;;;;;;0.85;0.80;;;;;;;;;;10330586;28;20094;-76
2023/10/25 22:33:27;;;;;;;0.98;0.90;;;;;;;;;;10336622;28;20471;-77
2023/10/25 22:38:31;;;;;;;1.13;0.60;;;;;;;;;;10319197;28;20042;-77
2023/10/25 22:43:36;;;;;;;2.15;1.08;;;;;;;;;;10315266;28;20096;-77
2023/10/25 22:48:39;;;;;;;0.98;0.80;;;;;;;;;;10334428;28;20047;-77
2023/10/25 22:53:43;;;;;;;0.98;0.80;;;;;;;;;;10319510;28;20057;-76
2023/10/25 22:58:47;;;;;;;0.90;0.80;;;;;;;;;;10332818;28;20061;-76
2023/10/25 23:03:51;;;;;;;1.00;0.90;;;;;;;;;;10326704;28;20054;-76
2023/10/25 23:08:54;;;;;;;1.05;0.85;;;;;;;;;;10333787;28;20050;-77
2023/10/25 23:13:59;;;;;;;1.58;0.98;;;;;;;;;;10341543;28;20057;-76
2023/10/25 23:19:02;;;;;;;1.50;1.40;;;;;;;;;;10330003;28;20137;-76
2023/10/25 23:24:07;;;;;;;1.50;1.23;;;;;;;;;;10334384;28;20045;-76
2023/10/25 23:29:12;;;;;;;1.80;1.25;;;;;;;;;;10334756;28;20042;-76
2023/10/25 23:34:15;;;;;;;2.10;1.50;;;;;;;;;;10335041;28;20092;-76
2023/10/25 23:39:18;;;;;;;1.90;1.67;;;;;;;;;;10330146;28;20041;-76
2023/10/25 23:44:23;;;;;;;2.28;2.08;;;;;;;;;;10334302;28;20423;-76
2023/10/25 23:49:27;;;;;;;4.22;2.13;;;;;;;;;;10330340;28;20651;-76
2023/10/25 23:54:30;;;;;;;3.75;2.40;;;;;;;;;;10333501;28;20050;-77
2023/10/25 23:59:35;;;;;;;2.25;2.05;;;;;;;;;;10315448;28;20103;-76
